KSNL/SNL METAR and TAF weather

Enter ICAO airport designator
Station Type Date Time Source
KSNL METAR 2019/05/20 10:15 UTC NOAA

KSNL 201015Z AUTO 04005KT 10SM SCT041 SCT050 SCT070 15/13 A2992 RMK AO2 T01460126


Station Type Date Time Source
KSNL Decoded METAR 2019/05/20 10:15 UTC NOAA

Shawnee, Shawnee Municipal Airport, OK, United States (KSNL) 35-21-26N 096-56-34W
May 20, 2019 - 06:15 AM EDT / 2019.05.20 1015 UTC
Wind: from the NE (040 degrees) at 6 MPH (5 KT):0
Visibility: 10 mile(s):0
Sky conditions: partly cloudy
Temperature: 58.3 F (14.6 C)
Dew Point: 54.7 F (12.6 C)
Relative Humidity: 87%
Pressure (altimeter): 29.92 in. Hg (1013 hPa)
ob: KSNL 201015Z AUTO 04005KT 10SM SCT041 SCT050 SCT070 15/13 A2992 RMK AO2 T01460126
cycle: 10

Station Type Date Time Source
KSNL TAF UTC NOAA

Error!

Example: see airport list